TW-0026 weather

Taipei Grand Hyatt Hotel Helipad
Taipei, Taipei (municipality), Taiwan

Public forecast

Using degrees Celsius for public forecast. Weather courtesy of forecast.io.

METAR (pilot weather report)

Closest report is Taipei Songshan Airport, 2.1 nm (4.0 km) NNW. Retrieved 2019/07/16 03:30 UTC (0 seconds ago):

RCSS 160330Z VRB08KT 9999 FEW025 35/26 Q1005 NOSIG RMK A2968

TAF (pilot weather forecast)

Forecast is more than 12 hours old.

Closest forecast is Taipei Songshan Airport, 2.1 nm (4.0 km) NNW. Retrieved 2019/07/15 00:00 UTC (1 day ago):

TAF RCSS 152300Z 1600/1624 26005KT 9999 FEW020 SCT250 BECMG 1600/1602 09005KT BECMG 1606/1608 09010KT BECMG 1612/1614 09015KT FEW025 BKN032